createdAt,value
2022-11-05T00:02:31.017Z,90.84
2022-11-05T00:05:16.081Z,89.86
2022-11-05T00:08:07.913Z,91.08
2022-11-05T00:10:37.621Z,91.04
2022-11-05T00:13:25.883Z,90.64
2022-11-05T00:16:11.285Z,90.38
2022-11-05T00:18:39.178Z,91.74
2022-11-05T00:21:27.348Z,92.38
2022-11-05T00:24:13.007Z,92.69
2022-11-05T00:26:41.191Z,92.68
2022-11-05T00:29:08.919Z,92.27
2022-11-05T00:31:36.646Z,93.19
2022-11-05T00:34:04.512Z,92.84
2022-11-05T00:36:32.282Z,93.00
2022-11-05T00:39:01.317Z,92.89
2022-11-05T00:41:29.025Z,92.72
2022-11-05T00:44:14.771Z,92.63
2022-11-05T00:46:42.539Z,92.44
2022-11-05T00:49:27.716Z,92.39
2022-11-05T00:52:17.041Z,92.16
2022-11-05T00:54:46.155Z,92.58
2022-11-05T00:57:13.937Z,92.99
2022-11-05T00:59:41.699Z,93.14
2022-11-05T01:02:09.588Z,93.12
2022-11-05T01:04:37.381Z,92.41
2022-11-05T01:07:05.134Z,92.51
2022-11-05T01:09:32.987Z,92.50
2022-11-05T01:12:02.228Z,92.93
2022-11-05T01:14:30.271Z,92.25
2022-11-05T01:16:58.001Z,92.27
2022-11-05T01:19:25.726Z,92.36
2022-11-05T01:21:53.549Z,91.68
2022-11-05T01:24:21.442Z,92.10
2022-11-05T01:26:49.253Z,91.48
2022-11-05T01:29:18.362Z,91.61
2022-11-05T01:31:46.171Z,91.56
2022-11-05T01:34:13.954Z,92.54
2022-11-05T01:36:41.707Z,92.22
2022-11-05T01:39:09.469Z,92.53
2022-11-05T01:41:37.255Z,92.69
2022-11-05T01:44:05.438Z,92.13
2022-11-05T01:46:37.522Z,92.72
2022-11-05T01:49:13.316Z,92.83
2022-11-05T01:51:42.243Z,92.56
2022-11-05T01:54:14.418Z,92.27
2022-11-05T01:56:45.699Z,92.10
2022-11-05T01:59:17.513Z,92.58
2022-11-05T02:01:47.627Z,92.61
2022-11-05T02:04:20.794Z,92.85
2022-11-05T02:06:48.700Z,93.50
2022-11-05T02:09:21.702Z,92.92
2022-11-05T02:11:50.891Z,92.14
2022-11-05T02:14:19.276Z,92.76
2022-11-05T02:16:54.301Z,92.48
2022-11-05T02:19:47.293Z,93.34
2022-11-05T02:22:41.693Z,93.09
2022-11-05T02:25:41.809Z,92.77
2022-11-05T02:28:35.005Z,92.67
2022-11-05T02:31:11.161Z,92.41
2022-11-05T02:33:45.005Z,92.87
2022-11-05T02:36:30.271Z,92.69
2022-11-05T02:39:09.473Z,93.15
2022-11-05T02:41:47.748Z,92.20
2022-11-05T02:44:24.892Z,93.18
2022-11-05T02:46:59.442Z,92.17
2022-11-05T02:49:36.301Z,92.62
2022-11-05T02:52:10.477Z,92.74
2022-11-05T02:54:44.114Z,92.21
2022-11-05T02:57:11.926Z,92.51
2022-11-05T02:59:39.746Z,92.35
2022-11-05T03:02:09.196Z,92.98
2022-11-05T03:04:37.162Z,92.85
2022-11-05T03:07:22.886Z,92.64
2022-11-05T03:10:18.777Z,92.32
2022-11-05T03:12:58.492Z,92.72
2022-11-05T03:15:40.204Z,92.00
2022-11-05T03:18:15.936Z,91.93
2022-11-05T03:20:49.965Z,91.86
2022-11-05T03:23:28.689Z,92.41
2022-11-05T03:26:17.546Z,92.43
2022-11-05T03:28:49.180Z,92.26
2022-11-05T03:31:18.767Z,92.30
2022-11-05T03:33:49.709Z,92.51
2022-11-05T03:36:22.947Z,92.18
2022-11-05T03:38:54.251Z,92.88
2022-11-05T03:41:23.952Z,92.35
2022-11-05T03:43:56.114Z,92.83
2022-11-05T03:46:29.371Z,92.79
2022-11-05T03:49:00.259Z,92.72
2022-11-05T03:51:37.537Z,92.70
2022-11-05T03:54:06.328Z,91.70
2022-11-05T03:56:39.277Z,92.18
2022-11-05T03:59:10.361Z,92.46
2022-11-05T04:01:39.383Z,92.60
2022-11-05T04:04:10.293Z,92.38
2022-11-05T04:06:55.577Z,92.50
2022-11-05T04:09:40.812Z,92.66
2022-11-05T04:12:27.788Z,92.59
2022-11-05T04:14:55.683Z,92.84
2022-11-05T04:17:22.671Z,92.10
2022-11-05T04:20:09.237Z,91.47
2022-11-05T04:22:54.859Z,91.46
2022-11-05T04:25:23.476Z,90.25
2022-11-05T04:27:51.263Z,90.68
2022-11-05T04:30:19.376Z,89.97
2022-11-05T04:33:02.046Z,91.13
2022-11-05T04:35:33.004Z,91.67
2022-11-05T04:38:01.138Z,92.79
2022-11-05T04:40:29.328Z,92.62
2022-11-05T04:42:58.377Z,92.40
2022-11-05T04:45:28.506Z,92.15
2022-11-05T04:47:56.364Z,91.74
2022-11-05T04:50:24.870Z,91.83
2022-11-05T04:52:54.156Z,91.67
2022-11-05T04:55:22.237Z,91.72
2022-11-05T04:57:50.575Z,92.06
2022-11-05T05:00:19.610Z,92.33
2022-11-05T05:02:47.865Z,91.79
2022-11-05T05:05:16.461Z,91.97
2022-11-05T05:07:44.323Z,92.25
2022-11-05T05:10:14.053Z,92.10
2022-11-05T05:12:42.060Z,91.62
2022-11-05T05:15:09.961Z,91.94
2022-11-05T05:17:37.831Z,92.83
2022-11-05T05:20:38.015Z,93.25
2022-11-05T05:23:06.274Z,91.92
2022-11-05T05:25:35.433Z,92.33
2022-11-05T05:28:03.428Z,92.60
2022-11-05T05:30:31.158Z,92.92
2022-11-05T05:33:02.876Z,92.94
2022-11-05T05:35:30.646Z,93.57
2022-11-05T05:37:58.364Z,93.82
2022-11-05T05:40:26.127Z,94.35
2022-11-05T05:42:56.555Z,94.18
2022-11-05T05:45:24.312Z,94.04
2022-11-05T05:47:52.148Z,94.20
2022-11-05T05:50:19.913Z,94.15
2022-11-05T05:52:47.716Z,94.18
2022-11-05T05:55:16.021Z,94.31
2022-11-05T05:57:43.850Z,93.43
2022-11-05T06:00:14.878Z,93.65
2022-11-05T06:02:42.999Z,93.49
2022-11-05T06:05:11.099Z,93.58
2022-11-05T06:07:38.889Z,93.48
2022-11-05T06:10:07.678Z,92.79
2022-11-05T06:12:35.679Z,92.87
2022-11-05T06:15:04.022Z,93.16
2022-11-05T06:17:34.015Z,92.74
2022-11-05T06:20:01.880Z,92.93
2022-11-05T06:22:30.274Z,92.99
2022-11-05T06:24:58.113Z,93.26
2022-11-05T06:27:26.017Z,93.05
2022-11-05T06:29:53.807Z,92.62
2022-11-05T06:32:21.674Z,92.83
2022-11-05T06:34:50.991Z,92.55
2022-11-05T06:37:18.820Z,92.18
2022-11-05T06:39:46.698Z,92.07
2022-11-05T06:42:19.052Z,91.94
2022-11-05T06:44:47.417Z,92.28
2022-11-05T06:47:15.236Z,92.44
2022-11-05T06:49:43.165Z,91.81
2022-11-05T06:52:12.634Z,92.67
2022-11-05T06:54:40.779Z,92.48
2022-11-05T06:57:10.062Z,92.34
2022-11-05T06:59:38.274Z,92.62
2022-11-05T07:02:06.957Z,92.59
2022-11-05T07:04:34.958Z,92.18
2022-11-05T07:07:03.236Z,92.51
2022-11-05T07:09:32.374Z,92.73
2022-11-05T07:12:00.428Z,92.40
2022-11-05T07:14:28.205Z,92.57
2022-11-05T07:16:57.903Z,92.56
2022-11-05T07:19:25.618Z,92.66
2022-11-05T07:21:53.433Z,92.21
2022-11-05T07:24:27.715Z,92.47
2022-11-05T07:26:57.129Z,92.35
2022-11-05T07:29:24.977Z,92.15
2022-11-05T07:31:55.441Z,92.30
2022-11-05T07:34:23.334Z,92.66
2022-11-05T07:37:01.230Z,92.81
2022-11-05T07:39:32.008Z,93.10
2022-11-05T07:42:12.659Z,92.77
2022-11-05T07:47:28.925Z,92.48
2022-11-05T07:50:05.516Z,91.77
2022-11-05T07:52:33.657Z,91.15
2022-11-05T07:55:01.498Z,89.84
2022-11-05T07:57:31.048Z,89.90
2022-11-05T07:59:58.896Z,88.77
2022-11-05T08:02:34.916Z,88.03
2022-11-05T08:05:10.113Z,87.46
2022-11-05T08:07:38.821Z,88.83
2022-11-05T08:10:09.929Z,86.38
2022-11-05T08:12:41.793Z,87.47
2022-11-05T08:15:11.263Z,88.52
2022-11-05T08:17:39.395Z,88.57
2022-11-05T08:20:09.009Z,88.73
2022-11-05T08:22:43.645Z,88.32
2022-11-05T08:25:15.667Z,87.40
2022-11-05T08:27:56.675Z,86.91
2022-11-05T08:30:29.221Z,87.59
2022-11-05T08:33:01.951Z,85.24
2022-11-05T08:35:35.977Z,83.48
2022-11-05T08:38:10.451Z,83.63
2022-11-05T08:40:38.597Z,82.67
2022-11-05T08:43:13.889Z,79.57
2022-11-05T08:45:46.723Z,76.89
2022-11-05T08:48:21.668Z,76.84
2022-11-05T08:50:50.009Z,76.87
2022-11-05T08:53:18.021Z,76.74
2022-11-05T08:55:51.578Z,76.88
2022-11-05T08:58:20.989Z,79.82
2022-11-05T09:00:51.988Z,78.83
2022-11-05T09:03:20.205Z,77.13
2022-11-05T09:05:48.375Z,81.79
2022-11-05T09:08:18.318Z,79.54
2022-11-05T09:10:47.877Z,82.17
2022-11-05T09:13:19.320Z,79.38
2022-11-05T09:15:50.270Z,78.57
2022-11-05T09:18:19.534Z,78.44
2022-11-05T09:20:48.440Z,78.93
2022-11-05T09:23:16.955Z,76.82
2022-11-05T09:25:46.938Z,74.40
2022-11-05T09:28:22.055Z,73.15
2022-11-05T09:30:52.913Z,74.66
2022-11-05T09:33:23.306Z,75.28
2022-11-05T09:35:54.731Z,75.76
2022-11-05T09:38:23.981Z,77.37
2022-11-05T09:40:58.636Z,76.29
2022-11-05T09:43:32.158Z,78.13
2022-11-05T09:46:08.849Z,79.00
2022-11-05T09:48:39.264Z,78.69
2022-11-05T09:51:22.423Z,78.38
2022-11-05T09:53:59.444Z,79.27
2022-11-05T09:56:39.398Z,80.13
2022-11-05T09:59:15.393Z,79.99
2022-11-05T10:02:05.615Z,80.89
2022-11-05T10:04:45.809Z,81.15
2022-11-05T10:07:18.077Z,79.51
2022-11-05T10:09:49.408Z,80.25
2022-11-05T10:12:23.980Z,80.00
2022-11-05T10:15:03.882Z,79.18
2022-11-05T10:17:38.872Z,77.99
2022-11-05T10:20:16.277Z,77.00
2022-11-05T10:22:49.336Z,78.09
2022-11-05T10:25:20.432Z,76.17
2022-11-05T10:27:55.449Z,76.50
2022-11-05T10:30:24.137Z,76.52
2022-11-05T10:32:58.401Z,75.52
2022-11-05T10:35:30.337Z,74.54
2022-11-05T10:37:58.549Z,74.75
2022-11-05T10:40:38.386Z,74.82
2022-11-05T10:43:11.544Z,74.84
2022-11-05T10:45:49.469Z,75.57
2022-11-05T10:48:43.667Z,74.71
2022-11-05T10:51:12.153Z,75.09
2022-11-05T10:53:54.880Z,73.53
2022-11-05T10:56:34.565Z,73.52
2022-11-05T10:59:07.987Z,73.79
2022-11-05T11:01:39.345Z,74.21
2022-11-05T11:04:17.055Z,73.78
2022-11-05T11:06:50.693Z,70.46
2022-11-05T11:09:25.654Z,71.14
2022-11-05T11:12:06.867Z,69.13
2022-11-05T11:14:35.286Z,73.55
2022-11-05T11:17:28.121Z,68.63
2022-11-05T11:20:22.004Z,70.76
2022-11-05T11:23:13.988Z,68.22
2022-11-05T11:25:49.068Z,64.46
2022-11-05T11:28:22.343Z,67.41
2022-11-05T11:30:55.082Z,63.75
2022-11-05T11:33:27.492Z,66.35
2022-11-05T11:35:57.837Z,65.92
2022-11-05T11:38:30.216Z,65.18
2022-11-05T11:41:03.698Z,64.52
2022-11-05T11:43:36.106Z,64.02
2022-11-05T11:46:08.852Z,62.81
2022-11-05T11:48:43.242Z,63.26
2022-11-05T11:51:31.673Z,62.13
2022-11-05T11:54:00.629Z,61.15
2022-11-05T11:56:30.271Z,61.74
2022-11-05T11:59:02.303Z,62.11
2022-11-05T12:01:55.635Z,61.28
2022-11-05T12:04:53.435Z,61.24
2022-11-05T12:07:34.908Z,63.50
2022-11-05T12:14:11.075Z,59.92
2022-11-05T12:17:04.999Z,60.42
2022-11-05T12:19:57.841Z,57.68
2022-11-05T12:22:36.479Z,59.31
2022-11-05T12:25:21.523Z,59.95
2022-11-05T12:28:21.296Z,60.18
2022-11-05T12:30:57.148Z,59.75
2022-11-05T12:33:31.165Z,59.43
2022-11-05T12:36:14.596Z,59.17
2022-11-05T12:39:07.892Z,58.96
2022-11-05T12:41:43.321Z,59.93
2022-11-05T12:44:34.947Z,60.07
2022-11-05T12:47:15.418Z,60.49
2022-11-05T12:49:55.385Z,58.88
2022-11-05T12:52:39.924Z,59.68
2022-11-05T12:55:15.413Z,59.25
2022-11-05T12:57:49.073Z,58.44
2022-11-05T13:00:20.396Z,59.22
2022-11-05T13:02:53.714Z,58.71
2022-11-05T13:05:28.645Z,58.60
2022-11-05T13:08:13.507Z,59.85
2022-11-05T13:10:50.834Z,59.53
2022-11-05T13:13:27.854Z,60.00
2022-11-05T13:16:00.259Z,59.90
2022-11-05T13:18:32.977Z,59.92
2022-11-05T13:21:16.116Z,59.39
2022-11-05T13:23:49.038Z,59.38
2022-11-05T13:26:26.631Z,60.13
2022-11-05T13:28:59.104Z,60.89
2022-11-05T13:31:32.554Z,60.22
2022-11-05T13:34:05.270Z,60.83
2022-11-05T13:36:57.246Z,59.93
2022-11-05T13:39:30.076Z,59.32
2022-11-05T13:42:23.944Z,61.99
2022-11-05T13:45:07.714Z,62.50
2022-11-05T13:47:55.949Z,63.44
2022-11-05T13:50:51.908Z,65.55
2022-11-05T13:53:55.064Z,65.78
2022-11-05T13:56:34.855Z,68.70
2022-11-05T13:59:45.269Z,73.48
2022-11-05T14:02:18.346Z,75.72
2022-11-05T14:04:48.911Z,80.48
2022-11-05T14:07:20.533Z,82.76
2022-11-05T14:09:54.601Z,76.84
2022-11-05T14:12:26.664Z,75.50
2022-11-05T14:15:03.905Z,80.24
2022-11-05T14:17:54.368Z,76.06
2022-11-05T14:20:39.589Z,77.69
2022-11-05T14:23:47.172Z,80.81
2022-11-05T14:26:19.435Z,83.29
2022-11-05T14:28:52.629Z,85.08
2022-11-05T14:34:46.107Z,81.31
2022-11-05T14:37:26.981Z,85.11
2022-11-05T14:39:56.188Z,80.57
2022-11-05T14:42:27.632Z,81.61
2022-11-05T14:45:06.977Z,80.72
2022-11-05T14:47:45.130Z,76.00
2022-11-05T14:50:20.856Z,74.26
2022-11-05T14:52:53.287Z,73.24
2022-11-05T14:55:29.237Z,74.19
2022-11-05T14:58:33.110Z,73.94
2022-11-05T15:01:02.974Z,72.30
2022-11-05T15:03:47.130Z,73.72
2022-11-05T15:06:25.898Z,72.80
2022-11-05T15:09:21.870Z,75.57
2022-11-05T15:12:00.492Z,75.02
2022-11-05T15:14:32.944Z,72.74
2022-11-05T15:17:09.659Z,74.27
2022-11-05T15:19:42.098Z,73.26
2022-11-05T15:22:30.008Z,73.51
2022-11-05T15:24:57.802Z,73.04
2022-11-05T15:27:50.234Z,73.18
2022-11-05T15:30:20.476Z,73.29
2022-11-05T15:32:48.564Z,72.41
2022-11-05T15:35:27.170Z,72.84
2022-11-05T15:38:02.026Z,73.27
2022-11-05T15:40:32.376Z,73.72
2022-11-05T15:43:12.047Z,73.96
2022-11-05T15:45:40.101Z,75.39
2022-11-05T15:48:15.377Z,73.04
2022-11-05T15:50:44.712Z,77.29
2022-11-05T15:54:15.783Z,77.43
2022-11-05T15:56:24.375Z,73.90
2022-11-05T15:58:55.645Z,75.43
2022-11-05T16:01:27.920Z,76.01
2022-11-05T16:03:57.930Z,76.68
2022-11-05T16:06:35.345Z,74.39
2022-11-05T16:09:03.856Z,75.87
2022-11-05T16:11:32.674Z,75.27
2022-11-05T16:14:16.027Z,77.11
2022-11-05T16:16:44.468Z,74.76
2022-11-05T16:19:40.913Z,75.88
2022-11-05T16:22:10.420Z,75.64
2022-11-05T16:24:38.594Z,76.81
2022-11-05T16:27:07.498Z,76.02
2022-11-05T16:29:37.133Z,77.22
2022-11-05T16:32:07.947Z,77.77
2022-11-05T16:34:39.131Z,78.09
2022-11-05T16:37:09.002Z,80.20
2022-11-05T16:39:40.988Z,80.19
2022-11-05T16:42:37.650Z,79.47
2022-11-05T16:45:06.697Z,81.06
2022-11-05T16:47:35.006Z,79.70
2022-11-05T16:50:03.220Z,79.89
2022-11-05T16:52:31.183Z,80.33
2022-11-05T16:55:00.387Z,79.94
2022-11-05T16:57:30.327Z,80.59
2022-11-05T17:00:00.199Z,80.43
2022-11-05T17:02:28.809Z,80.88
2022-11-05T17:04:56.855Z,80.55
2022-11-05T17:07:24.657Z,82.38
2022-11-05T17:09:52.486Z,80.92
2022-11-05T17:12:21.675Z,81.08
2022-11-05T17:14:49.471Z,81.62
2022-11-05T17:17:17.226Z,81.30
2022-11-05T17:19:45.667Z,81.19
2022-11-05T17:22:13.764Z,81.01
2022-11-05T17:24:44.829Z,81.05
2022-11-05T17:27:12.855Z,82.21
2022-11-05T17:29:42.171Z,81.33
2022-11-05T17:32:10.276Z,81.39
2022-11-05T17:34:38.219Z,79.79
2022-11-05T17:37:06.138Z,80.53
2022-11-05T17:39:37.019Z,79.46
2022-11-05T17:42:05.268Z,80.28
2022-11-05T17:44:33.193Z,80.85
2022-11-05T17:47:02.469Z,82.10
2022-11-05T17:49:30.757Z,80.71
2022-11-05T17:51:58.596Z,80.13
2022-11-05T17:54:26.463Z,79.94
2022-11-05T17:56:54.487Z,79.78
2022-11-05T17:59:22.351Z,80.08
2022-11-05T18:01:50.256Z,80.57
2022-11-05T18:04:19.505Z,80.87
2022-11-05T18:06:47.460Z,80.76
2022-11-05T18:09:15.840Z,81.56
2022-11-05T18:11:43.941Z,81.59
2022-11-05T18:14:11.766Z,81.53
2022-11-05T18:16:39.655Z,81.70
2022-11-05T18:19:07.574Z,82.11
2022-11-05T18:21:36.988Z,83.49
2022-11-05T18:24:05.462Z,82.48
2022-11-05T18:26:33.901Z,82.39
2022-11-05T18:29:02.303Z,82.30
2022-11-05T18:31:30.662Z,82.41
2022-11-05T18:34:00.578Z,82.05
2022-11-05T18:36:30.796Z,81.62
2022-11-05T18:39:01.600Z,81.41
2022-11-05T18:41:29.549Z,81.96
2022-11-05T18:44:13.171Z,81.62
2022-11-05T18:46:57.648Z,81.61
2022-11-05T18:49:26.819Z,81.63
2022-11-05T18:51:54.822Z,82.09
2022-11-05T18:54:24.516Z,82.16
2022-11-05T18:56:52.371Z,81.36
2022-11-05T18:59:39.073Z,82.21
2022-11-05T19:02:09.639Z,81.13
2022-11-05T19:04:38.383Z,81.60
2022-11-05T19:07:07.277Z,81.27
2022-11-05T19:09:38.138Z,81.55
2022-11-05T19:12:07.846Z,81.28
2022-11-05T19:14:36.895Z,81.50
2022-11-05T19:17:04.942Z,81.44
2022-11-05T19:19:32.811Z,80.92
2022-11-05T19:22:00.836Z,80.55
2022-11-05T19:24:29.125Z,80.52
2022-11-05T19:26:58.406Z,80.95
2022-11-05T19:29:26.254Z,80.51
2022-11-05T19:31:54.369Z,80.34
2022-11-05T19:34:22.164Z,80.80
2022-11-05T19:36:50.065Z,80.51
2022-11-05T19:39:18.272Z,80.36
2022-11-05T19:41:47.763Z,80.29
2022-11-05T19:44:17.116Z,79.83
2022-11-05T19:46:45.223Z,79.78
2022-11-05T19:49:13.527Z,79.87
2022-11-05T19:51:41.745Z,79.47
2022-11-05T19:54:10.038Z,80.11
2022-11-05T19:56:38.571Z,79.72
2022-11-05T19:59:07.550Z,79.90
2022-11-05T20:01:37.094Z,80.06
2022-11-05T20:04:05.790Z,79.93
2022-11-05T20:06:37.823Z,80.03
2022-11-05T20:09:21.472Z,79.79
2022-11-05T20:11:50.209Z,79.34
2022-11-05T20:14:18.417Z,78.65
2022-11-05T20:16:48.166Z,79.20
2022-11-05T20:19:18.355Z,79.43
2022-11-05T20:21:46.582Z,79.19
2022-11-05T20:24:22.428Z,79.50
2022-11-05T20:26:52.114Z,79.51
2022-11-05T20:29:20.459Z,79.46
2022-11-05T20:31:50.316Z,79.34
2022-11-05T20:34:18.512Z,79.19
2022-11-05T20:36:47.646Z,79.98
2022-11-05T20:39:15.564Z,79.62
2022-11-05T20:41:43.527Z,79.87
2022-11-05T20:44:14.213Z,80.08
2022-11-05T20:46:42.631Z,80.52
2022-11-05T20:49:12.337Z,79.62
2022-11-05T20:51:40.316Z,80.11
2022-11-05T20:54:08.637Z,79.83
2022-11-05T20:56:37.070Z,79.94
2022-11-05T20:59:05.735Z,79.53
2022-11-05T21:01:35.094Z,79.60
2022-11-05T21:04:04.347Z,79.22
2022-11-05T21:06:34.850Z,79.54
2022-11-05T21:09:04.043Z,79.78
2022-11-05T21:11:56.159Z,79.50
2022-11-05T21:14:24.123Z,80.31
2022-11-05T21:16:52.276Z,79.47
2022-11-05T21:19:20.614Z,80.01
2022-11-05T21:21:49.898Z,79.92
2022-11-05T21:24:17.909Z,80.05
2022-11-05T21:26:46.294Z,79.06
2022-11-05T21:29:14.293Z,79.84
2022-11-05T21:31:42.409Z,79.38
2022-11-05T21:34:10.375Z,79.07
2022-11-05T21:36:38.248Z,78.53
2022-11-05T21:39:13.018Z,79.12
2022-11-05T21:41:42.515Z,78.96
2022-11-05T21:44:10.659Z,79.11
2022-11-05T21:46:38.826Z,78.51
2022-11-05T21:49:06.813Z,79.92
2022-11-05T21:51:53.117Z,78.03
2022-11-05T21:54:39.822Z,78.88
2022-11-05T21:57:31.990Z,78.21
2022-11-05T22:00:00.901Z,77.96
2022-11-05T22:02:29.532Z,78.37
2022-11-05T22:04:59.880Z,78.03
2022-11-05T22:07:32.656Z,77.65
2022-11-05T22:10:02.793Z,78.21
2022-11-05T22:12:32.285Z,77.36
2022-11-05T22:15:00.268Z,77.80
2022-11-05T22:17:28.270Z,77.31
2022-11-05T22:19:56.164Z,77.41
2022-11-05T22:22:24.026Z,77.77
2022-11-05T22:24:51.974Z,76.96
2022-11-05T22:27:22.521Z,78.06
2022-11-05T22:29:50.946Z,78.85
2022-11-05T22:32:19.279Z,79.46
2022-11-05T22:34:48.983Z,78.61
2022-11-05T22:37:16.943Z,78.15
2022-11-05T22:39:44.801Z,78.17
2022-11-05T22:42:12.710Z,78.43
2022-11-05T22:44:41.952Z,78.59
2022-11-05T22:47:09.855Z,78.36
2022-11-05T22:49:37.824Z,78.74
2022-11-05T22:52:06.267Z,78.90
2022-11-05T22:54:39.041Z,79.42
2022-11-05T22:57:07.610Z,78.52
2022-11-05T22:59:35.417Z,79.57
2022-11-05T23:02:09.574Z,79.36
2022-11-05T23:04:38.996Z,79.40
2022-11-05T23:07:27.556Z,79.64
2022-11-05T23:10:13.926Z,79.98
2022-11-05T23:12:43.493Z,79.79
2022-11-05T23:15:33.787Z,80.07
2022-11-05T23:18:20.816Z,79.92
2022-11-05T23:21:07.383Z,80.56
2022-11-05T23:23:52.680Z,81.11
2022-11-05T23:26:38.154Z,80.96
2022-11-05T23:29:06.134Z,80.43
2022-11-05T23:31:51.483Z,80.93
2022-11-05T23:34:21.236Z,81.37
2022-11-05T23:37:06.807Z,80.41
2022-11-05T23:39:38.376Z,80.96
2022-11-05T23:42:28.336Z,81.14
2022-11-05T23:45:14.839Z,81.48
2022-11-05T23:48:02.097Z,81.02
2022-11-05T23:50:37.113Z,81.01
2022-11-05T23:53:08.557Z,80.42
2022-11-05T23:55:36.513Z,80.11
2022-11-05T23:58:04.556Z,81.06
